LFQQLFAT

Guest
Details From LFQQ - Lille Lesquin
To LFAT - Le Touquet Paris Plage
Flight Number -
Tags decoded
Created
Modified
Stats Distance 58 nm / 108 km
Max Altitude 0 ft / 0 m
Waypoints 3
Social Downloads 2
Likes 0
Share VATSIM

Download

Looking for another format? Having issues loading an existing format? Contact us
Advertisement - Login to hide

Notes

Requested: LFQQ BNE LFAT

Route

LFQQ BNE LFAT

ID Type Via Altitude Latitude Longitude Leg Dist Tot Dist Heading (true) Name
O LFQQ APT - 0 ft / 0 m 50.56633˚ 3.09538˚ - 0 nm - Lille Lesquin
BNE VOR - 0 ft / 0 m 50.62478˚ 1.90711˚ 45 nm 45 nm 275° / 274° BOULOGNE SUR MER VOR
O LFAT APT - 0 ft / 0 m 50.51586˚ 1.62273˚ 12 nm 58 nm 239° / 239° Le Touquet Paris Plage

Altitude Profile

Advertisement - Login to hide

LFQQ

Details ICAO LFQQ (LIL)
Name Lille Lesquin
Region France
Timezone Europe/Paris (UTC+1.0)
Stats Elevation 156 ft / 48 m (AMSL)
Location 50.566335° 3.095384°
Runways 2
Magnetic Variation 0.705° E

METAR

LFQQ 180700Z AUTO 32012KT 9999 FEW025 SCT084 BKN100 06/03 Q1022 NOSIG

Decode

TAF

TAF LFQQ 180500Z 1806/1912 34010KT 9999 SCT017 BECMG 1820/1823 27005KT 2000 BR BECMG 1903/1905 0200 FG VV/// BECMG 1909/1912 8000 NSW BKN005

Decode

Departure Runways

ID Width Length Bearing (true) Bearing (mag) Surface Threshold Offset Overrun Length
02 98 ft / 30 m 5,168 ft / 1,575 m 14.83° 14.12° Asphalt 0 ft / 0 m 0 ft / 0 m
08 146 ft / 45 m 9,250 ft / 2,819 m 77.36° 76.65° Asphalt 0 ft / 0 m 0 ft / 0 m
20 98 ft / 30 m 5,168 ft / 1,575 m 194.83° 194.12° Asphalt 0 ft / 0 m 0 ft / 0 m
26 146 ft / 45 m 9,250 ft / 2,819 m 257.39° 256.68° Asphalt 918 ft / 280 m 0 ft / 0 m

LFAT

Details ICAO LFAT (LTQ)
Name Le Touquet Paris Plage
Region France
Timezone Europe/Paris (UTC+1.0)
Stats Elevation 35 ft / 11 m (AMSL)
Location 50.515857° 1.622729°
Runways 2
Magnetic Variation 0.236° E

METAR

LFAT 180700Z AUTO 34009KT CAVOK 05/03 Q1024 NOSIG

Decode

TAF

Not found

Destination Runways

ID Width Length Bearing (true) Bearing (mag) Surface Threshold Offset Overrun Length
07 120 ft / 37 m 1,949 ft / 594 m 60.65° 60.41° Asphalt 0 ft / 0 m 0 ft / 0 m
14 131 ft / 40 m 6,050 ft / 1,844 m 133.54° 133.30° Asphalt 0 ft / 0 m 0 ft / 0 m
25 120 ft / 37 m 1,949 ft / 594 m 240.65° 240.41° Asphalt 750 ft / 229 m 0 ft / 0 m
32 131 ft / 40 m 6,050 ft / 1,844 m 313.56° 313.32° Asphalt 492 ft / 150 m 0 ft / 0 m

Approach Navaids

Runway Type Ident Frequency Range Bearing (true) Bearing (mag) Slope Elevation
14 Localiser LT 110.15 MHz 27 nm / 50 km 134.00° 133.76° - 35 ft / 11 m (AMSL)
14 Glidescope LT 110.15 MHz 27 nm / 50 km 134.00° 133.76° 3.00° 35 ft / 11 m (AMSL)
14 DME LT 110.15 MHz 27 nm / 50 km - - - 35 ft / 11 m (AMSL)

Popular Alternatives